sensor_id;sensor_type;location;lat;lon;timestamp;pressure;altitude;pressure_sealevel;temperature;humidity
61337;BME280;47212;41.326;2.104;2023-04-07T00:02:24;101780.38;;;13.13;61.31
61337;BME280;47212;41.326;2.104;2023-04-07T00:07:40;101783.06;;;13.08;61.25
61337;BME280;47212;41.326;2.104;2023-04-07T00:12:58;101793.94;;;13.03;61.68
61337;BME280;47212;41.326;2.104;2023-04-07T00:18:02;101797.38;;;12.98;61.32
61337;BME280;47212;41.326;2.104;2023-04-07T00:23:06;101795.34;;;12.89;61.96
61337;BME280;47212;41.326;2.104;2023-04-07T00:28:12;101791.97;;;12.82;61.88
61337;BME280;47212;41.326;2.104;2023-04-07T00:33:16;101781.28;;;12.80;62.05
61337;BME280;47212;41.326;2.104;2023-04-07T00:38:24;101774.41;;;12.77;62.43
61337;BME280;47212;41.326;2.104;2023-04-07T00:43:28;101786.84;;;12.68;62.21
61337;BME280;47212;41.326;2.104;2023-04-07T00:48:40;101771.97;;;12.59;62.60
61337;BME280;47212;41.326;2.104;2023-04-07T00:53:56;101762.06;;;12.53;62.78
61337;BME280;47212;41.326;2.104;2023-04-07T00:59:06;101763.06;;;12.47;63.31
61337;BME280;47212;41.326;2.104;2023-04-07T01:04:32;101766.28;;;12.44;64.16
61337;BME280;47212;41.326;2.104;2023-04-07T01:09:41;101752.06;;;12.42;63.19
61337;BME280;47212;41.326;2.104;2023-04-07T01:14:51;101749.81;;;12.39;63.73
61337;BME280;47212;41.326;2.104;2023-04-07T01:22:53;101741.56;;;12.34;64.92
61337;BME280;47212;41.326;2.104;2023-04-07T01:33:50;101726.16;;;12.28;65.08
61337;BME280;47212;41.326;2.104;2023-04-07T01:38:58;101720.38;;;12.24;64.34
61337;BME280;47212;41.326;2.104;2023-04-07T01:44:08;101722.22;;;12.19;65.26
61337;BME280;47212;41.326;2.104;2023-04-07T01:49:15;101708.44;;;12.13;64.99
61337;BME280;47212;41.326;2.104;2023-04-07T01:54:20;101708.44;;;12.13;65.19
61337;BME280;47212;41.326;2.104;2023-04-07T01:59:25;101705.16;;;12.11;65.30
61337;BME280;47212;41.326;2.104;2023-04-07T02:04:51;101700.19;;;12.08;66.21
61337;BME280;47212;41.326;2.104;2023-04-07T02:10:08;101699.59;;;12.06;66.25
61337;BME280;47212;41.326;2.104;2023-04-07T02:15:15;101701.50;;;12.06;66.06
61337;BME280;47212;41.326;2.104;2023-04-07T02:20:34;101691.91;;;12.03;65.88
61337;BME280;47212;41.326;2.104;2023-04-07T02:25:38;101696.56;;;12.03;66.55
61337;BME280;47212;41.326;2.104;2023-04-07T02:30:41;101697.63;;;12.02;66.18
61337;BME280;47212;41.326;2.104;2023-04-07T02:35:46;101691.59;;;12.00;66.11
61337;BME280;47212;41.326;2.104;2023-04-07T02:40:55;101683.66;;;11.98;66.56
61337;BME280;47212;41.326;2.104;2023-04-07T02:46:03;101681.44;;;11.95;67.21
61337;BME280;47212;41.326;2.104;2023-04-07T02:51:06;101682.50;;;11.94;66.61
61337;BME280;47212;41.326;2.104;2023-04-07T02:56:10;101680.84;;;11.93;66.75
61337;BME280;47212;41.326;2.104;2023-04-07T03:01:16;101685.47;;;11.93;66.49
61337;BME280;47212;41.326;2.104;2023-04-07T03:06:23;101678.63;;;11.90;66.96
61337;BME280;47212;41.326;2.104;2023-04-07T03:11:48;101686.13;;;11.83;66.46
61337;BME280;47212;41.326;2.104;2023-04-07T03:16:53;101672.88;;;11.75;67.23
61337;BME280;47212;41.326;2.104;2023-04-07T03:21:56;101661.31;;;11.68;66.51
61337;BME280;47212;41.326;2.104;2023-04-07T03:27:18;101665.28;;;11.60;66.42
61337;BME280;47212;41.326;2.104;2023-04-07T03:32:23;101657.25;;;11.54;67.12
61337;BME280;47212;41.326;2.104;2023-04-07T03:37:27;101652.19;;;11.45;67.50
61337;BME280;47212;41.326;2.104;2023-04-07T03:42:38;101640.03;;;11.36;66.69
61337;BME280;47212;41.326;2.104;2023-04-07T03:47:47;101644.25;;;11.27;66.91
61337;BME280;47212;41.326;2.104;2023-04-07T03:52:51;101643.53;;;11.20;67.34
61337;BME280;47212;41.326;2.104;2023-04-07T03:58:01;101643.69;;;11.13;67.37
